createdAt,value
2017-11-30T05:00:40.600Z,997.74
2017-11-30T05:01:06.120Z,997.75
2017-11-30T05:01:31.575Z,997.8
2017-11-30T05:02:35.168Z,997.77
2017-11-30T05:03:00.622Z,997.76
2017-11-30T05:03:26.117Z,997.79
2017-11-30T05:03:51.622Z,997.77
2017-11-30T05:04:17.100Z,997.75
2017-11-30T05:04:42.552Z,997.79
2017-11-30T05:05:08.057Z,997.77
2017-11-30T05:05:33.549Z,997.75
2017-11-30T05:05:59.060Z,997.76
2017-11-30T05:06:24.521Z,997.75
2017-11-30T05:06:50.031Z,997.75
2017-11-30T05:07:15.524Z,997.76
2017-11-30T05:07:41.002Z,997.79
2017-11-30T05:08:06.454Z,997.8
2017-11-30T05:08:31.914Z,997.75
2017-11-30T05:08:57.424Z,997.75
2017-11-30T05:09:22.896Z,997.78
2017-11-30T05:09:48.341Z,997.76
2017-11-30T05:10:13.830Z,997.79
2017-11-30T05:11:32.760Z,997.75
2017-11-30T05:11:58.219Z,997.82
2017-11-30T05:12:23.700Z,997.75
2017-11-30T05:12:49.211Z,997.78
2017-11-30T05:13:14.654Z,997.8
2017-11-30T05:13:40.150Z,997.8
2017-11-30T05:14:05.631Z,997.78
2017-11-30T05:14:31.167Z,997.81
2017-11-30T05:14:56.597Z,997.77
2017-11-30T05:15:22.047Z,997.75
2017-11-30T05:15:47.552Z,997.75
2017-11-30T05:16:13.107Z,997.73
2017-11-30T05:16:38.569Z,997.74
2017-11-30T05:17:04.077Z,997.72
2017-11-30T05:17:29.512Z,997.72
2017-11-30T05:17:54.948Z,997.78
2017-11-30T05:18:20.464Z,997.74
2017-11-30T05:18:46.008Z,997.73
2017-11-30T05:19:11.543Z,997.77
2017-11-30T05:19:37.024Z,997.76
2017-11-30T05:20:02.501Z,997.73
2017-11-30T05:20:27.953Z,997.73
2017-11-30T05:20:53.471Z,997.76
2017-11-30T05:21:18.961Z,997.74
2017-11-30T05:21:44.434Z,997.74
2017-11-30T05:22:09.903Z,997.69
2017-11-30T05:22:35.448Z,997.68
2017-11-30T05:23:00.883Z,997.73
2017-11-30T05:23:26.564Z,997.72
2017-11-30T05:23:52.202Z,997.72
2017-11-30T05:24:18.297Z,997.72
2017-11-30T05:24:43.800Z,997.7
2017-11-30T05:25:09.305Z,997.7
2017-11-30T05:25:34.776Z,997.69
2017-11-30T05:26:00.246Z,997.69
2017-11-30T05:26:25.698Z,997.68
2017-11-30T05:26:51.208Z,997.67
2017-11-30T05:27:16.661Z,997.65
2017-11-30T05:27:42.164Z,997.67
2017-11-30T05:28:07.681Z,997.63
2017-11-30T05:28:33.172Z,997.67
2017-11-30T05:28:58.731Z,997.68
2017-11-30T05:29:24.159Z,997.59
2017-11-30T05:29:49.624Z,997.65
2017-11-30T05:30:15.068Z,997.62
2017-11-30T05:30:40.565Z,997.63
2017-11-30T05:31:05.973Z,997.63
2017-11-30T05:31:31.460Z,997.59
2017-11-30T05:31:56.941Z,997.59
2017-11-30T05:32:22.389Z,997.63
2017-11-30T05:32:47.944Z,997.61
2017-11-30T05:33:13.402Z,997.61
2017-11-30T05:33:38.922Z,997.62
2017-11-30T05:34:04.340Z,997.6
2017-11-30T05:34:29.846Z,997.61
2017-11-30T05:34:55.352Z,997.62
2017-11-30T05:35:20.851Z,997.61
2017-11-30T05:35:46.327Z,997.59
2017-11-30T05:36:11.830Z,997.63
2017-11-30T05:36:37.273Z,997.61
2017-11-30T05:37:02.765Z,997.59
2017-11-30T05:37:28.303Z,997.57
2017-11-30T05:37:53.767Z,997.63
2017-11-30T05:38:19.247Z,997.61
2017-11-30T05:38:44.788Z,997.57
2017-11-30T05:39:10.248Z,997.58
2017-11-30T05:39:35.730Z,997.55
2017-11-30T05:40:01.193Z,997.56
2017-11-30T05:40:26.608Z,997.53
2017-11-30T05:40:52.153Z,997.56
2017-11-30T05:41:17.578Z,997.57
2017-11-30T05:41:42.998Z,997.53
2017-11-30T05:42:08.493Z,997.56
2017-11-30T05:42:33.967Z,997.56
2017-11-30T05:42:59.455Z,997.53
2017-11-30T05:43:24.901Z,997.53
2017-11-30T05:43:50.411Z,997.52
2017-11-30T05:44:15.930Z,997.54
2017-11-30T05:44:41.360Z,997.53
2017-11-30T05:45:06.852Z,997.48
2017-11-30T05:45:32.266Z,997.53
2017-11-30T05:45:57.754Z,997.47
2017-11-30T05:46:23.222Z,997.51
2017-11-30T05:46:48.715Z,997.47
2017-11-30T05:47:14.168Z,997.43
2017-11-30T05:47:39.644Z,997.43
2017-11-30T05:48:05.157Z,997.45
2017-11-30T05:48:30.611Z,997.49
2017-11-30T05:48:56.161Z,997.45
2017-11-30T05:49:21.609Z,997.49
2017-11-30T05:49:47.025Z,997.45
2017-11-30T05:50:12.513Z,997.52
2017-11-30T05:50:38.008Z,997.47
2017-11-30T05:51:03.507Z,997.49
2017-11-30T05:51:28.927Z,997.44
2017-11-30T05:51:54.402Z,997.47
2017-11-30T05:52:19.889Z,997.42
2017-11-30T05:52:45.396Z,997.46
2017-11-30T05:53:10.894Z,997.47
2017-11-30T05:53:36.431Z,997.45
2017-11-30T05:54:01.914Z,997.44
2017-11-30T05:54:27.344Z,997.45
2017-11-30T05:54:52.871Z,997.43
2017-11-30T05:55:18.323Z,997.47
2017-11-30T05:55:43.773Z,997.49
2017-11-30T05:56:09.198Z,997.49
2017-11-30T05:56:34.688Z,997.49
2017-11-30T05:57:00.191Z,997.49
2017-11-30T05:57:25.744Z,997.5
2017-11-30T05:57:51.174Z,997.46
2017-11-30T05:58:16.695Z,997.5
2017-11-30T05:58:42.160Z,997.51
2017-11-30T05:59:07.661Z,997.49
2017-11-30T05:59:33.141Z,997.5
2017-11-30T05:59:58.593Z,997.5
2017-11-30T06:00:24.078Z,997.45
2017-11-30T06:00:49.575Z,997.48
2017-11-30T06:01:15.059Z,997.52
2017-11-30T06:01:40.530Z,997.54
2017-11-30T06:02:06.012Z,997.5
2017-11-30T06:02:31.453Z,997.48
2017-11-30T06:02:56.926Z,997.48
2017-11-30T06:03:22.377Z,997.51
2017-11-30T06:03:47.850Z,997.46
2017-11-30T06:04:13.428Z,997.51
2017-11-30T06:04:38.858Z,997.54
2017-11-30T06:05:04.355Z,997.5
2017-11-30T06:05:29.839Z,997.49
2017-11-30T06:05:55.350Z,997.49
2017-11-30T06:06:20.754Z,997.53
2017-11-30T06:06:46.235Z,997.55
2017-11-30T06:07:11.720Z,997.46
2017-11-30T06:07:37.114Z,997.54
2017-11-30T06:08:02.619Z,997.5
2017-11-30T06:08:28.113Z,997.49
2017-11-30T06:08:53.630Z,997.51
2017-11-30T06:09:19.116Z,997.43
2017-11-30T06:09:44.605Z,997.49
2017-11-30T06:10:10.119Z,997.48
2017-11-30T06:10:35.599Z,997.47
2017-11-30T06:11:01.032Z,997.49
2017-11-30T06:11:26.509Z,997.46
2017-11-30T06:11:51.971Z,997.43
2017-11-30T06:12:17.387Z,997.51
2017-11-30T06:12:42.870Z,997.44
2017-11-30T06:13:08.370Z,997.43
2017-11-30T06:13:33.781Z,997.42
2017-11-30T06:13:59.275Z,997.43
2017-11-30T06:14:24.801Z,997.4
2017-11-30T06:14:50.283Z,997.46
2017-11-30T06:15:15.774Z,997.43
2017-11-30T06:15:41.335Z,997.47
2017-11-30T06:16:06.764Z,997.47
2017-11-30T06:16:32.259Z,997.44
2017-11-30T06:16:57.898Z,997.46
2017-11-30T06:17:23.373Z,997.46
2017-11-30T06:17:48.834Z,997.48
2017-11-30T06:18:14.297Z,997.46
2017-11-30T06:18:39.824Z,997.48
2017-11-30T06:19:05.252Z,997.5
2017-11-30T06:19:30.724Z,997.49
2017-11-30T06:19:56.238Z,997.47
2017-11-30T06:20:21.763Z,997.46
2017-11-30T06:20:47.242Z,997.48
2017-11-30T06:21:12.706Z,997.48
2017-11-30T06:21:38.187Z,997.48
2017-11-30T06:22:03.661Z,997.45
2017-11-30T06:22:29.203Z,997.43
2017-11-30T06:22:54.640Z,997.47
2017-11-30T06:23:20.108Z,997.48
2017-11-30T06:23:45.603Z,997.45
2017-11-30T06:24:11.059Z,997.46
2017-11-30T06:24:36.518Z,997.46
2017-11-30T06:25:02.004Z,997.43
2017-11-30T06:25:27.487Z,997.46
2017-11-30T06:25:53.019Z,997.46
2017-11-30T06:26:18.460Z,997.41
2017-11-30T06:26:43.944Z,997.47
2017-11-30T06:27:09.427Z,997.46
2017-11-30T06:27:34.871Z,997.44
2017-11-30T06:28:00.394Z,997.44
2017-11-30T06:28:25.858Z,997.46
2017-11-30T06:28:51.275Z,997.4
2017-11-30T06:29:16.779Z,997.43
2017-11-30T06:29:42.189Z,997.39
2017-11-30T06:30:07.678Z,997.43
2017-11-30T06:30:33.183Z,997.45
2017-11-30T06:30:58.597Z,997.43
2017-11-30T06:31:24.463Z,997.42
2017-11-30T06:31:49.882Z,997.42
2017-11-30T06:32:15.352Z,997.44
2017-11-30T06:32:40.832Z,997.46
2017-11-30T06:33:06.300Z,997.43
2017-11-30T06:33:31.815Z,997.45
2017-11-30T06:33:57.248Z,997.48
2017-11-30T06:34:22.782Z,997.46
2017-11-30T06:34:48.202Z,997.47
2017-11-30T06:35:13.642Z,997.46
2017-11-30T06:35:39.112Z,997.46
2017-11-30T06:36:04.551Z,997.46
2017-11-30T06:36:30.034Z,997.48
2017-11-30T06:36:55.473Z,997.5
2017-11-30T06:37:20.972Z,997.53
2017-11-30T06:37:46.460Z,997.52
2017-11-30T06:38:11.864Z,997.48
2017-11-30T06:38:37.360Z,997.51
2017-11-30T06:39:02.819Z,997.48
2017-11-30T06:39:28.304Z,997.49
2017-11-30T06:39:53.721Z,997.46
2017-11-30T06:40:19.222Z,997.5
2017-11-30T06:40:44.652Z,997.46
2017-11-30T06:41:10.112Z,997.48
2017-11-30T06:41:35.588Z,997.51
2017-11-30T06:42:01.037Z,997.49
2017-11-30T06:42:26.506Z,997.52
2017-11-30T06:42:51.984Z,997.5
2017-11-30T06:43:17.442Z,997.53
2017-11-30T06:43:42.965Z,997.51
2017-11-30T06:44:08.421Z,997.49
2017-11-30T06:44:33.846Z,997.5
2017-11-30T06:44:59.339Z,997.5
2017-11-30T06:45:24.862Z,997.47
2017-11-30T06:45:50.373Z,997.47
2017-11-30T06:46:15.867Z,997.48
2017-11-30T06:46:41.311Z,997.5
2017-11-30T06:47:06.774Z,997.5
2017-11-30T06:47:32.368Z,997.51
2017-11-30T06:47:57.799Z,997.46
2017-11-30T06:48:23.311Z,997.5
2017-11-30T06:48:48.748Z,997.48
2017-11-30T06:49:14.227Z,997.43
2017-11-30T06:49:39.712Z,997.45
2017-11-30T06:50:05.118Z,997.46
2017-11-30T06:50:30.571Z,997.43
2017-11-30T06:50:56.092Z,997.42
2017-11-30T06:51:21.533Z,997.46
2017-11-30T06:51:47.035Z,997.48
2017-11-30T06:52:12.472Z,997.44
2017-11-30T06:52:38.117Z,997.43
2017-11-30T06:53:03.603Z,997.43
2017-11-30T06:53:29.115Z,997.47
2017-11-30T06:53:54.564Z,997.46
2017-11-30T06:54:20.036Z,997.46
2017-11-30T06:54:45.498Z,997.48
2017-11-30T06:55:10.985Z,997.43
2017-11-30T06:55:36.399Z,997.41
2017-11-30T06:56:01.887Z,997.42
2017-11-30T06:56:27.361Z,997.41
2017-11-30T06:56:52.873Z,997.43
2017-11-30T06:57:18.285Z,997.46
2017-11-30T06:57:43.754Z,997.4
2017-11-30T06:58:09.208Z,997.44
2017-11-30T06:58:34.696Z,997.45
2017-11-30T06:59:00.178Z,997.43
2017-11-30T06:59:25.607Z,997.43
2017-11-30T06:59:51.053Z,997.45
2017-11-30T07:00:16.529Z,997.45
2017-11-30T07:00:42.049Z,997.42
2017-11-30T07:01:07.477Z,997.46
2017-11-30T07:01:32.962Z,997.48
2017-11-30T07:01:58.402Z,997.44
2017-11-30T07:02:23.859Z,997.46
2017-11-30T07:02:49.329Z,997.48
2017-11-30T07:03:14.850Z,997.48
2017-11-30T07:03:40.278Z,997.5
2017-11-30T07:04:05.740Z,997.44
2017-11-30T07:04:31.224Z,997.48
2017-11-30T07:04:56.677Z,997.51
2017-11-30T07:05:22.143Z,997.48
2017-11-30T07:05:47.655Z,997.47
2017-11-30T07:06:13.203Z,997.54
2017-11-30T07:06:38.712Z,997.5
2017-11-30T07:07:04.150Z,997.53
2017-11-30T07:07:29.590Z,997.54
2017-11-30T07:07:55.097Z,997.57
2017-11-30T07:08:20.535Z,997.57
2017-11-30T07:08:45.956Z,997.51
2017-11-30T07:09:11.450Z,997.57
2017-11-30T07:09:36.941Z,997.54
2017-11-30T07:10:02.414Z,997.57
2017-11-30T07:10:27.903Z,997.6
2017-11-30T07:10:53.334Z,997.55
2017-11-30T07:11:18.833Z,997.57
2017-11-30T07:11:44.283Z,997.55
2017-11-30T07:12:09.890Z,997.6
2017-11-30T07:12:35.382Z,997.57
2017-11-30T07:13:00.791Z,997.58
2017-11-30T07:13:26.274Z,997.56
2017-11-30T07:13:51.702Z,997.57
2017-11-30T07:14:17.206Z,997.57
2017-11-30T07:14:42.694Z,997.61
2017-11-30T07:15:08.124Z,997.58
2017-11-30T07:15:33.593Z,997.56
2017-11-30T07:15:59.091Z,997.59
2017-11-30T07:16:24.566Z,997.56
2017-11-30T07:16:50.018Z,997.61
2017-11-30T07:17:15.477Z,997.56
2017-11-30T07:17:40.916Z,997.59
2017-11-30T07:18:06.400Z,997.6
2017-11-30T07:18:31.892Z,997.56
2017-11-30T07:18:57.413Z,997.59
2017-11-30T07:19:22.892Z,997.58
2017-11-30T07:19:48.386Z,997.6
2017-11-30T07:20:13.822Z,997.6
2017-11-30T07:20:39.318Z,997.58
2017-11-30T07:21:04.754Z,997.57
2017-11-30T07:21:30.226Z,997.61
2017-11-30T07:21:55.698Z,997.52
2017-11-30T07:22:21.150Z,997.56
2017-11-30T07:22:46.602Z,997.56
2017-11-30T07:23:12.099Z,997.54
2017-11-30T07:23:37.598Z,997.56
2017-11-30T07:24:03.053Z,997.58
2017-11-30T07:24:28.534Z,997.56
2017-11-30T07:24:53.960Z,997.52
2017-11-30T07:25:19.450Z,997.53
2017-11-30T07:25:44.935Z,997.49
2017-11-30T07:26:10.340Z,997.51
2017-11-30T07:26:35.853Z,997.54
2017-11-30T07:27:01.282Z,997.53
2017-11-30T07:27:26.763Z,997.5
2017-11-30T07:27:52.269Z,997.51
2017-11-30T07:28:17.700Z,997.51
2017-11-30T07:28:43.189Z,997.53
2017-11-30T07:29:08.652Z,997.53
2017-11-30T07:29:34.101Z,997.52
2017-11-30T07:29:59.651Z,997.53
2017-11-30T07:30:25.182Z,997.54
2017-11-30T07:30:50.562Z,997.52
2017-11-30T07:31:16.039Z,997.52
2017-11-30T07:31:41.506Z,997.52
2017-11-30T07:32:07.034Z,997.49
2017-11-30T07:32:32.542Z,997.51
2017-11-30T07:32:57.977Z,997.5
2017-11-30T07:33:23.414Z,997.53
2017-11-30T07:33:48.977Z,997.48
2017-11-30T07:34:14.550Z,997.54
2017-11-30T07:34:39.900Z,997.55
2017-11-30T07:35:05.423Z,997.53
2017-11-30T07:35:30.853Z,997.54
2017-11-30T07:35:56.336Z,997.56
2017-11-30T07:36:21.756Z,997.54
2017-11-30T07:36:47.213Z,997.52
2017-11-30T07:37:12.702Z,997.52
2017-11-30T07:37:38.155Z,997.58
2017-11-30T07:38:03.645Z,997.51
2017-11-30T07:38:29.134Z,997.51
2017-11-30T07:38:54.588Z,997.52
2017-11-30T07:39:20.119Z,997.51
2017-11-30T07:39:45.547Z,997.51
2017-11-30T07:40:11.027Z,997.44
2017-11-30T07:40:36.480Z,997.5
2017-11-30T07:41:01.951Z,997.49
2017-11-30T07:41:27.379Z,997.49
2017-11-30T07:41:52.870Z,997.49
2017-11-30T07:42:18.318Z,997.49
2017-11-30T07:42:43.837Z,997.49
2017-11-30T07:43:10.277Z,997.46
2017-11-30T07:43:35.174Z,997.46
2017-11-30T07:44:00.640Z,997.48
2017-11-30T07:44:26.137Z,997.49
2017-11-30T07:44:51.605Z,997.5
2017-11-30T07:45:17.135Z,997.47
2017-11-30T07:45:42.611Z,997.51
2017-11-30T07:46:08.110Z,997.48
2017-11-30T07:46:33.645Z,997.46
2017-11-30T07:46:59.154Z,997.45
2017-11-30T07:47:24.620Z,997.47
2017-11-30T07:47:50.169Z,997.49
2017-11-30T07:48:15.637Z,997.48
2017-11-30T07:48:41.127Z,997.46
2017-11-30T07:49:06.575Z,997.47
2017-11-30T07:49:32.141Z,997.47
2017-11-30T07:49:57.550Z,997.48
2017-11-30T07:50:23.076Z,997.5
2017-11-30T07:50:48.536Z,997.49
2017-11-30T07:51:14.002Z,997.49
2017-11-30T07:51:39.482Z,997.52
2017-11-30T07:52:04.957Z,997.54
2017-11-30T07:52:30.422Z,997.48
2017-11-30T07:52:55.933Z,997.49
2017-11-30T07:53:21.376Z,997.55
2017-11-30T07:53:46.822Z,997.52
2017-11-30T07:54:12.348Z,997.58
2017-11-30T07:54:37.795Z,997.58
2017-11-30T07:55:03.277Z,997.58
2017-11-30T07:55:28.787Z,997.61
2017-11-30T07:55:54.265Z,997.57
2017-11-30T07:56:19.703Z,997.59
2017-11-30T07:56:45.201Z,997.61
2017-11-30T07:57:10.695Z,997.59
2017-11-30T07:57:36.156Z,997.59
2017-11-30T07:58:01.633Z,997.61
2017-11-30T07:58:27.147Z,997.62
2017-11-30T07:58:52.648Z,997.63
2017-11-30T07:59:18.173Z,997.65
2017-11-30T07:59:43.642Z,997.65
2017-11-30T08:00:09.129Z,997.62
2017-11-30T08:00:34.555Z,997.65
2017-11-30T08:01:00.072Z,997.64
2017-11-30T08:01:25.524Z,997.67
2017-11-30T08:01:51.046Z,997.68
2017-11-30T08:02:16.577Z,997.7
2017-11-30T08:02:42.012Z,997.65
2017-11-30T08:03:07.485Z,997.68
2017-11-30T08:03:32.977Z,997.7
2017-11-30T08:03:58.468Z,997.7
2017-11-30T08:04:23.965Z,997.67
2017-11-30T08:04:49.434Z,997.64
2017-11-30T08:05:14.899Z,997.65
2017-11-30T08:05:40.385Z,997.66
2017-11-30T08:06:05.860Z,997.62
2017-11-30T08:06:31.325Z,997.66
2017-11-30T08:06:56.794Z,997.63
2017-11-30T08:07:22.278Z,997.62
2017-11-30T08:07:47.714Z,997.61
2017-11-30T08:08:13.182Z,997.62
2017-11-30T08:08:38.717Z,997.64
2017-11-30T08:09:04.175Z,997.61
2017-11-30T08:09:29.631Z,997.61
2017-11-30T08:09:55.212Z,997.61
2017-11-30T08:10:20.717Z,997.57
2017-11-30T08:10:46.165Z,997.59
2017-11-30T08:11:11.771Z,997.6
2017-11-30T08:11:37.146Z,997.58
2017-11-30T08:12:02.606Z,997.63
2017-11-30T08:12:28.142Z,997.6
2017-11-30T08:12:53.559Z,997.62
2017-11-30T08:13:19.055Z,997.63
2017-11-30T08:13:44.588Z,997.6
2017-11-30T08:14:10.111Z,997.61
2017-11-30T08:14:35.537Z,997.59
2017-11-30T08:15:01.086Z,997.64
2017-11-30T08:15:26.571Z,997.6
2017-11-30T08:15:52.089Z,997.56
2017-11-30T08:16:17.555Z,997.59
2017-11-30T08:16:43.115Z,997.59
2017-11-30T08:17:08.553Z,997.59
2017-11-30T08:17:34.027Z,997.6
2017-11-30T08:17:59.473Z,997.58
2017-11-30T08:18:24.914Z,997.61
2017-11-30T08:18:50.445Z,997.63
2017-11-30T08:19:15.900Z,997.61
2017-11-30T08:19:41.396Z,997.64
2017-11-30T08:20:06.892Z,997.65
2017-11-30T08:20:32.422Z,997.61
2017-11-30T08:20:57.952Z,997.63
2017-11-30T08:21:23.477Z,997.64
2017-11-30T08:21:48.932Z,997.64
2017-11-30T08:22:14.436Z,997.65
2017-11-30T08:22:39.940Z,997.64
2017-11-30T08:23:05.431Z,997.62
2017-11-30T08:23:31.013Z,997.64
2017-11-30T08:23:56.440Z,997.62
2017-11-30T08:24:21.884Z,997.67
2017-11-30T08:24:47.359Z,997.69
2017-11-30T08:25:12.862Z,997.64
2017-11-30T08:25:38.340Z,997.68
2017-11-30T08:26:03.844Z,997.65
2017-11-30T08:26:29.327Z,997.66
2017-11-30T08:26:54.873Z,997.67
2017-11-30T08:27:20.338Z,997.64
2017-11-30T08:27:45.781Z,997.64
2017-11-30T08:28:11.262Z,997.67
2017-11-30T08:28:36.705Z,997.64
2017-11-30T08:29:02.264Z,997.66
2017-11-30T08:29:27.688Z,997.68
2017-11-30T08:29:53.160Z,997.66
2017-11-30T08:30:18.629Z,997.65
2017-11-30T08:30:44.141Z,997.64
2017-11-30T08:31:09.608Z,997.62
2017-11-30T08:31:35.040Z,997.61
2017-11-30T08:32:00.601Z,997.62
2017-11-30T08:32:26.031Z,997.62
2017-11-30T08:32:51.500Z,997.63
2017-11-30T08:33:16.967Z,997.58
2017-11-30T08:33:42.435Z,997.58
2017-11-30T08:34:07.912Z,997.58
2017-11-30T08:34:33.405Z,997.57
2017-11-30T08:34:58.936Z,997.56
2017-11-30T08:35:24.389Z,997.57
2017-11-30T08:35:49.825Z,997.6
2017-11-30T08:36:15.307Z,997.56
2017-11-30T08:36:40.795Z,997.6
2017-11-30T08:37:06.275Z,997.55
2017-11-30T08:37:31.730Z,997.57
2017-11-30T08:37:57.297Z,997.56
2017-11-30T08:38:22.751Z,997.59
2017-11-30T08:38:48.190Z,997.56
2017-11-30T08:39:13.667Z,997.53
2017-11-30T08:39:39.179Z,997.56
2017-11-30T08:40:04.646Z,997.56
2017-11-30T08:40:30.102Z,997.54
2017-11-30T08:40:55.575Z,997.52
2017-11-30T08:41:21.057Z,997.5
2017-11-30T08:41:46.566Z,997.5
2017-11-30T08:42:12.072Z,997.51
2017-11-30T08:42:37.544Z,997.5
2017-11-30T08:43:03.041Z,997.52
2017-11-30T08:43:28.547Z,997.54
2017-11-30T08:43:54.000Z,997.48
2017-11-30T08:44:19.617Z,997.48
2017-11-30T08:44:45.054Z,997.47
2017-11-30T08:45:10.538Z,997.44
2017-11-30T08:45:36.044Z,997.47
2017-11-30T08:46:01.449Z,997.46
2017-11-30T08:46:26.951Z,997.44
2017-11-30T08:46:52.440Z,997.45
2017-11-30T08:47:17.905Z,997.45
2017-11-30T08:47:43.314Z,997.42
2017-11-30T08:48:08.851Z,997.42
2017-11-30T08:48:34.353Z,997.45
2017-11-30T08:48:59.777Z,997.42
2017-11-30T08:49:25.278Z,997.44
2017-11-30T08:49:50.822Z,997.43
2017-11-30T08:50:16.323Z,997.48
2017-11-30T08:50:41.813Z,997.41
2017-11-30T08:51:07.326Z,997.42
2017-11-30T08:51:32.765Z,997.46
2017-11-30T08:51:58.225Z,997.45
2017-11-30T08:52:23.713Z,997.48
2017-11-30T08:52:49.215Z,997.47
2017-11-30T08:53:14.690Z,997.44
2017-11-30T08:53:40.168Z,997.48
2017-11-30T08:54:05.650Z,997.46
2017-11-30T08:54:31.131Z,997.4
2017-11-30T08:54:56.594Z,997.45
2017-11-30T08:55:22.082Z,997.48
2017-11-30T08:55:47.570Z,997.44
2017-11-30T08:56:13.018Z,997.46
2017-11-30T08:56:38.493Z,997.45
2017-11-30T08:57:03.933Z,997.48
2017-11-30T08:57:29.437Z,997.46
2017-11-30T08:57:54.934Z,997.49
2017-11-30T08:58:20.370Z,997.46
2017-11-30T08:58:45.866Z,997.45
2017-11-30T08:59:11.312Z,997.45
2017-11-30T08:59:36.769Z,997.49
2017-11-30T09:00:02.233Z,997.43
2017-11-30T09:00:27.727Z,997.44
2017-11-30T09:00:53.113Z,997.47
2017-11-30T09:01:18.636Z,997.46
2017-11-30T09:01:44.051Z,997.46
2017-11-30T09:02:09.523Z,997.46
2017-11-30T09:02:35.133Z,997.46
2017-11-30T09:03:00.659Z,997.44
2017-11-30T09:03:26.094Z,997.42
2017-11-30T09:03:51.562Z,997.44
2017-11-30T09:04:17.099Z,997.47
2017-11-30T09:04:42.601Z,997.42
2017-11-30T09:05:08.111Z,997.42
2017-11-30T09:05:33.584Z,997.39
2017-11-30T09:05:59.033Z,997.47
2017-11-30T09:06:24.532Z,997.47
2017-11-30T09:06:49.990Z,997.43
2017-11-30T09:07:15.448Z,997.43
2017-11-30T09:07:40.915Z,997.46
2017-11-30T09:08:06.437Z,997.49
2017-11-30T09:08:31.883Z,997.38
2017-11-30T09:08:57.344Z,997.41
2017-11-30T09:09:22.816Z,997.36
2017-11-30T09:09:48.315Z,997.39
2017-11-30T09:10:13.795Z,997.39
2017-11-30T09:10:39.227Z,997.39
2017-11-30T09:11:04.788Z,997.34
2017-11-30T09:11:30.238Z,997.32
2017-11-30T09:11:55.682Z,997.36
2017-11-30T09:12:21.156Z,997.35
2017-11-30T09:12:46.670Z,997.31
2017-11-30T09:13:12.127Z,997.3
2017-11-30T09:13:37.637Z,997.3
2017-11-30T09:14:03.078Z,997.29
2017-11-30T09:14:28.586Z,997.28
2017-11-30T09:14:54.081Z,997.3
2017-11-30T09:15:19.488Z,997.28
2017-11-30T09:15:45.006Z,997.27
2017-11-30T09:16:10.569Z,997.29
2017-11-30T09:16:36.033Z,997.29
2017-11-30T09:17:01.461Z,997.31
2017-11-30T09:17:26.883Z,997.29
2017-11-30T09:17:52.364Z,997.33
2017-11-30T09:18:17.850Z,997.3
2017-11-30T09:18:43.353Z,997.28
2017-11-30T09:19:08.880Z,997.29
2017-11-30T09:19:34.387Z,997.3
2017-11-30T09:19:59.857Z,997.28
2017-11-30T09:20:25.353Z,997.32
2017-11-30T09:20:50.831Z,997.32
2017-11-30T09:21:16.284Z,997.27
2017-11-30T09:21:41.782Z,997.32
2017-11-30T09:22:07.230Z,997.33
2017-11-30T09:22:32.740Z,997.33
2017-11-30T09:22:58.203Z,997.35
2017-11-30T09:23:23.653Z,997.33
2017-11-30T09:23:49.148Z,997.32
2017-11-30T09:24:14.586Z,997.33
2017-11-30T09:24:40.066Z,997.34
2017-11-30T09:25:05.539Z,997.37
2017-11-30T09:25:30.986Z,997.36
2017-11-30T09:25:56.459Z,997.35
2017-11-30T09:26:21.943Z,997.41
2017-11-30T09:26:47.471Z,997.37
2017-11-30T09:27:12.904Z,997.37
2017-11-30T09:27:38.392Z,997.42
2017-11-30T09:28:03.926Z,997.46
2017-11-30T09:28:29.324Z,997.47
2017-11-30T09:28:54.805Z,997.46
2017-11-30T09:29:20.322Z,997.48
2017-11-30T09:29:45.829Z,997.48
2017-11-30T09:30:11.306Z,997.49
2017-11-30T09:30:36.828Z,997.44
2017-11-30T09:31:02.256Z,997.44
2017-11-30T09:31:27.675Z,997.42
2017-11-30T09:31:53.210Z,997.44
2017-11-30T09:32:18.710Z,997.4
2017-11-30T09:32:44.166Z,997.37
2017-11-30T09:33:09.616Z,997.37
2017-11-30T09:33:35.154Z,997.37
2017-11-30T09:34:00.614Z,997.4
2017-11-30T09:34:26.052Z,997.38
2017-11-30T09:34:51.537Z,997.39
2017-11-30T09:35:16.968Z,997.41
2017-11-30T09:35:42.459Z,997.35
2017-11-30T09:36:07.930Z,997.41
2017-11-30T09:36:33.420Z,997.39
2017-11-30T09:36:58.920Z,997.37
2017-11-30T09:37:24.347Z,997.4
2017-11-30T09:37:49.800Z,997.41
2017-11-30T09:38:15.227Z,997.37
2017-11-30T09:38:40.693Z,997.39
2017-11-30T09:39:06.221Z,997.43
2017-11-30T09:39:31.634Z,997.4
2017-11-30T09:39:57.150Z,997.37
2017-11-30T09:40:22.671Z,997.38
2017-11-30T09:40:48.111Z,997.39
2017-11-30T09:41:13.613Z,997.37
2017-11-30T09:41:39.051Z,997.34
2017-11-30T09:42:04.535Z,997.32
2017-11-30T09:42:30.071Z,997.32
2017-11-30T09:42:55.461Z,997.31
2017-11-30T09:43:20.930Z,997.33
2017-11-30T09:43:46.432Z,997.33
2017-11-30T09:44:11.928Z,997.3
2017-11-30T09:44:37.341Z,997.29
2017-11-30T09:45:02.825Z,997.32
2017-11-30T09:45:28.273Z,997.3
2017-11-30T09:45:53.724Z,997.31
2017-11-30T09:46:19.224Z,997.32
2017-11-30T09:46:44.709Z,997.32
2017-11-30T09:47:10.210Z,997.29
2017-11-30T09:47:35.702Z,997.3
2017-11-30T09:48:01.191Z,997.29
2017-11-30T09:48:26.633Z,997.27
2017-11-30T09:48:52.130Z,997.26
2017-11-30T09:49:17.604Z,997.27
2017-11-30T09:49:43.039Z,997.28
2017-11-30T09:50:08.509Z,997.24
2017-11-30T09:50:34.012Z,997.27
2017-11-30T09:50:59.432Z,997.25
2017-11-30T09:51:25.024Z,997.27
2017-11-30T09:51:50.475Z,997.28
2017-11-30T09:52:15.972Z,997.23
2017-11-30T09:52:41.450Z,997.23
2017-11-30T09:53:06.927Z,997.26
2017-11-30T09:53:32.431Z,997.26
2017-11-30T09:53:57.913Z,997.28
2017-11-30T09:54:23.397Z,997.23
2017-11-30T09:54:48.964Z,997.24
2017-11-30T09:55:14.424Z,997.24
2017-11-30T09:55:39.902Z,997.24
2017-11-30T09:56:05.425Z,997.22
2017-11-30T09:56:30.893Z,997.19
2017-11-30T09:56:56.382Z,997.24
2017-11-30T09:57:21.904Z,997.16
2017-11-30T09:57:47.440Z,997.16
2017-11-30T09:58:12.893Z,997.15
2017-11-30T09:58:38.420Z,997.13
2017-11-30T09:59:03.903Z,997.11
2017-11-30T09:59:29.368Z,997.15
2017-11-30T09:59:54.841Z,997.17
2017-11-30T10:00:20.343Z,997.14
2017-11-30T10:00:45.833Z,997.14
2017-11-30T10:01:11.328Z,997.11
2017-11-30T10:01:36.874Z,997.1
2017-11-30T10:02:02.375Z,997.1
2017-11-30T10:02:27.923Z,997.08
2017-11-30T10:02:53.417Z,997.12
2017-11-30T10:03:18.878Z,997.07
2017-11-30T10:03:44.338Z,997.14
2017-11-30T10:04:09.791Z,997.07
2017-11-30T10:04:35.244Z,997.09
2017-11-30T10:05:00.677Z,997.12
2017-11-30T10:05:26.146Z,997.03
2017-11-30T10:05:51.623Z,997.07
2017-11-30T10:06:17.135Z,997.05
2017-11-30T10:06:42.556Z,997.05
2017-11-30T10:07:08.019Z,997.06
2017-11-30T10:07:33.491Z,997.04
2017-11-30T10:07:59.072Z,997.03
2017-11-30T10:08:24.525Z,997.04
2017-11-30T10:08:50.016Z,997.07
2017-11-30T10:09:15.470Z,997.04
2017-11-30T10:09:40.934Z,997.05
2017-11-30T10:10:06.384Z,997.04
2017-11-30T10:10:31.877Z,997.04
2017-11-30T10:10:57.330Z,997.07
2017-11-30T10:11:22.791Z,997.04
2017-11-30T10:11:48.334Z,997.07
2017-11-30T10:12:13.721Z,997.06
2017-11-30T10:12:39.280Z,997.04
2017-11-30T10:13:04.680Z,997.05
2017-11-30T10:13:30.206Z,997.03
2017-11-30T10:13:55.675Z,997.04
2017-11-30T10:14:21.152Z,997
2017-11-30T10:14:46.677Z,997.06
2017-11-30T10:15:12.127Z,997.04
2017-11-30T10:15:37.616Z,997.04
2017-11-30T10:16:03.037Z,997.04
2017-11-30T10:16:28.509Z,997.04
2017-11-30T10:16:54.021Z,997
2017-11-30T10:17:19.512Z,997.03
2017-11-30T10:17:45.014Z,997.04
2017-11-30T10:18:10.489Z,997.01
2017-11-30T10:18:35.949Z,997.06
2017-11-30T10:19:01.392Z,997.08
2017-11-30T10:19:26.875Z,997.03
2017-11-30T10:19:52.381Z,997.01
2017-11-30T10:20:17.844Z,997.01
2017-11-30T10:20:43.370Z,997.03